createdAt,value
2022-10-28T00:01:03.879Z,101554.91
2022-10-28T00:03:33.896Z,101545.09
2022-10-28T00:06:05.834Z,101554.97
2022-10-28T00:08:33.976Z,101550.25
2022-10-28T00:11:07.390Z,101551.16
2022-10-28T00:13:36.229Z,101560.06
2022-10-28T00:16:10.146Z,101560.06
2022-10-28T00:18:40.549Z,101563.56
2022-10-28T00:21:13.839Z,101553.69
2022-10-28T00:23:42.492Z,101557.25
2022-10-28T00:26:13.996Z,101547.41
2022-10-28T00:28:42.913Z,101550.09
2022-10-28T00:31:12.389Z,101559.88
2022-10-28T00:33:41.913Z,101557.25
2022-10-28T00:36:15.528Z,101554.63
2022-10-28T00:38:44.968Z,101551.88
2022-10-28T00:41:15.841Z,101541.19
2022-10-28T00:43:45.426Z,101535.13
2022-10-28T00:46:21.715Z,101526.34
2022-10-28T00:48:55.697Z,101540.72
2022-10-28T00:51:25.529Z,101549.78
2022-10-28T00:53:56.013Z,101539.09
2022-10-28T00:58:57.739Z,101550.88
2022-10-28T01:01:25.792Z,101533.13
2022-10-28T01:03:56.942Z,101537.81
2022-10-28T01:06:27.478Z,101538.03
2022-10-28T01:08:59.055Z,101531.19
2022-10-28T01:11:46.820Z,101535.78
2022-10-28T01:14:31.532Z,101531.47
2022-10-28T01:17:14.331Z,101542.28
2022-10-28T01:20:15.721Z,101536.22
2022-10-28T01:22:51.747Z,101550.69
2022-10-28T01:25:40.647Z,101559.63
2022-10-28T01:28:17.897Z,101544.31
2022-10-28T01:31:13.522Z,101536.22
2022-10-28T01:33:48.294Z,101546.31
2022-10-28T01:36:21.206Z,101537.53
2022-10-28T01:38:55.450Z,101545.81
2022-10-28T01:41:31.091Z,101538.91
2022-10-28T01:44:06.617Z,101547.09
2022-10-28T01:46:40.322Z,101545.38
2022-10-28T01:49:13.413Z,101548.16
2022-10-28T01:51:45.841Z,101541.06
2022-10-28T01:54:18.747Z,101542.97
2022-10-28T01:56:49.159Z,101544.91
2022-10-28T01:59:21.112Z,101546.75
2022-10-28T02:01:50.568Z,101547.53
2022-10-28T02:04:18.629Z,101552.84
2022-10-28T02:06:51.665Z,101547.44
2022-10-28T02:09:29.360Z,101541.19
2022-10-28T02:12:21.274Z,101546.50
2022-10-28T02:15:20.662Z,101544.72
2022-10-28T02:18:13.583Z,101540.25
2022-10-28T02:20:50.622Z,101539.38
2022-10-28T02:23:23.643Z,101543.91
2022-10-28T02:25:57.521Z,101546.69
2022-10-28T02:28:34.008Z,101546.75
2022-10-28T02:31:08.465Z,101548.63
2022-10-28T02:33:40.528Z,101536.22
2022-10-28T02:36:12.200Z,101534.41
2022-10-28T02:38:43.719Z,101539.81
2022-10-28T02:41:17.294Z,101540.72
2022-10-28T02:43:46.956Z,101532.78
2022-10-28T02:46:17.662Z,101534.63
2022-10-28T02:48:50.627Z,101527.78
2022-10-28T02:51:21.401Z,101523.63
2022-10-28T02:54:00.080Z,101514.84
2022-10-28T02:56:30.595Z,101507.81
2022-10-28T02:58:58.650Z,101508.03
2022-10-28T03:01:26.820Z,101502.84
2022-10-28T03:03:56.293Z,101494.94
2022-10-28T03:08:57.220Z,101483.75
2022-10-28T03:11:25.319Z,101478.47
2022-10-28T03:13:53.297Z,101487.31
2022-10-28T03:16:21.236Z,101478.47
2022-10-28T03:18:49.351Z,101477.56
2022-10-28T03:21:18.717Z,101472.09
2022-10-28T03:23:46.669Z,101475.50
2022-10-28T03:26:14.617Z,101471.94
2022-10-28T03:28:42.533Z,101475.41
2022-10-28T03:31:10.503Z,101470.03
2022-10-28T03:33:38.478Z,101467.38
2022-10-28T03:36:06.932Z,101474.56
2022-10-28T03:38:36.264Z,101468.38
2022-10-28T03:41:04.272Z,101465.91
2022-10-28T03:43:32.216Z,101467.88
2022-10-28T03:46:00.272Z,101466.00
2022-10-28T03:48:28.243Z,101462.38
2022-10-28T03:50:56.689Z,101462.19
2022-10-28T03:53:27.588Z,101463.84
2022-10-28T03:56:01.691Z,101473.47
2022-10-28T03:58:30.152Z,101459.06
2022-10-28T04:00:58.363Z,101460.69
2022-10-28T04:03:26.999Z,101464.16
2022-10-28T04:05:55.597Z,101456.03
2022-10-28T04:08:23.725Z,101465.84
2022-10-28T04:10:51.679Z,101453.38
2022-10-28T04:13:21.017Z,101455.09
2022-10-28T04:15:49.047Z,101454.25
2022-10-28T04:18:16.991Z,101456.81
2022-10-28T04:20:46.714Z,101454.94
2022-10-28T04:23:17.074Z,101451.25
2022-10-28T04:25:45.203Z,101449.50
2022-10-28T04:28:13.166Z,101462.66
2022-10-28T04:30:42.429Z,101455.44
2022-10-28T04:33:13.219Z,101452.72
2022-10-28T04:35:43.062Z,101441.97
2022-10-28T04:38:11.314Z,101438.16
2022-10-28T04:40:39.283Z,101440.75
2022-10-28T04:43:09.794Z,101451.31
2022-10-28T04:45:39.035Z,101462.75
2022-10-28T04:48:09.793Z,101450.91
2022-10-28T04:50:37.746Z,101456.69
2022-10-28T04:53:05.763Z,101464.53
2022-10-28T04:55:33.700Z,101462.56
2022-10-28T04:58:02.329Z,101464.06
2022-10-28T05:00:30.841Z,101463.03
2022-10-28T05:03:02.479Z,101453.19
2022-10-28T05:05:32.015Z,101459.34
2022-10-28T05:08:00.033Z,101447.72
2022-10-28T05:10:28.004Z,101448.72
2022-10-28T05:12:55.993Z,101440.63
2022-10-28T05:15:24.425Z,101438.00
2022-10-28T05:17:52.583Z,101438.88
2022-10-28T05:20:21.869Z,101436.19
2022-10-28T05:22:53.771Z,101430.00
2022-10-28T05:25:22.634Z,101429.13
2022-10-28T05:27:50.753Z,101426.53
2022-10-28T05:30:19.397Z,101422.25
2022-10-28T05:32:49.258Z,101428.66
2022-10-28T05:35:19.593Z,101421.84
2022-10-28T05:37:47.564Z,101414.03
2022-10-28T05:40:17.101Z,101402.75
2022-10-28T05:42:45.058Z,101409.94
2022-10-28T05:45:14.196Z,101413.66
2022-10-28T05:47:45.024Z,101404.81
2022-10-28T05:50:13.648Z,101410.34
2022-10-28T05:52:45.889Z,101399.84
2022-10-28T05:55:13.864Z,101409.91
2022-10-28T05:57:43.262Z,101405.59
2022-10-28T06:00:12.836Z,101412.88
2022-10-28T06:02:41.096Z,101403.97
2022-10-28T06:05:10.150Z,101402.25
2022-10-28T06:07:38.860Z,101406.69
2022-10-28T06:10:08.876Z,101404.09
2022-10-28T06:12:35.402Z,101400.66
2022-10-28T06:15:05.638Z,101401.66
2022-10-28T06:17:33.604Z,101405.28
2022-10-28T06:20:01.601Z,101407.19
2022-10-28T06:22:29.620Z,101402.81
2022-10-28T06:24:57.569Z,101401.09
2022-10-28T06:27:25.649Z,101401.09
2022-10-28T06:29:53.658Z,101411.66
2022-10-28T06:32:23.130Z,101417.81
2022-10-28T06:34:51.140Z,101417.78
2022-10-28T06:37:19.437Z,101415.78
2022-10-28T06:39:49.771Z,101413.94
2022-10-28T06:42:17.968Z,101421.75
2022-10-28T06:44:45.951Z,101414.53
2022-10-28T06:47:15.485Z,101409.19
2022-10-28T06:49:44.835Z,101421.47
2022-10-28T06:52:12.853Z,101402.94
2022-10-28T06:54:40.855Z,101407.00
2022-10-28T06:57:08.875Z,101413.13
2022-10-28T06:59:37.072Z,101420.16
2022-10-28T07:02:05.427Z,101423.78
2022-10-28T07:04:34.578Z,101420.16
2022-10-28T07:07:03.876Z,101423.50
2022-10-28T07:09:31.882Z,101425.13
2022-10-28T07:12:04.787Z,101424.13
2022-10-28T07:14:34.720Z,101421.34
2022-10-28T07:17:02.965Z,101409.69
2022-10-28T07:19:30.932Z,101416.75
2022-10-28T07:21:58.981Z,101414.91
2022-10-28T07:27:01.231Z,101419.09
2022-10-28T07:29:29.192Z,101422.59
2022-10-28T07:31:57.212Z,101422.41
2022-10-28T07:34:27.236Z,101415.94
2022-10-28T07:36:56.618Z,101403.56
2022-10-28T07:39:25.319Z,101419.06
2022-10-28T07:41:54.743Z,101417.84
2022-10-28T07:44:23.557Z,101417.63
2022-10-28T07:46:54.319Z,101427.34
2022-10-28T07:49:25.292Z,101435.22
2022-10-28T07:51:53.268Z,101427.88
2022-10-28T07:54:21.385Z,101430.41
2022-10-28T07:56:49.449Z,101424.84
2022-10-28T07:59:25.670Z,101431.78
2022-10-28T08:01:55.199Z,101413.53
2022-10-28T08:04:23.193Z,101416.81
2022-10-28T08:06:51.233Z,101421.94
2022-10-28T08:09:19.680Z,101420.91
2022-10-28T08:11:47.637Z,101418.91
2022-10-28T08:14:15.800Z,101413.22
2022-10-28T08:16:46.885Z,101413.88
2022-10-28T08:19:15.067Z,101407.19
2022-10-28T08:21:43.016Z,101405.00
2022-10-28T08:24:11.019Z,101404.78
2022-10-28T08:26:38.980Z,101396.56
2022-10-28T08:29:08.050Z,101395.41
2022-10-28T08:31:36.023Z,101396.00
2022-10-28T08:34:05.963Z,101402.16
2022-10-28T08:36:34.920Z,101402.66
2022-10-28T08:39:03.043Z,101376.09
2022-10-28T08:41:37.030Z,101395.97
2022-10-28T08:44:35.749Z,101390.34
2022-10-28T08:47:17.132Z,101388.09
2022-10-28T08:49:49.622Z,101380.78
2022-10-28T08:52:27.243Z,101387.66
2022-10-28T08:54:58.763Z,101381.09
2022-10-28T08:57:35.903Z,101382.59
2022-10-28T09:00:07.514Z,101381.34
2022-10-28T09:02:50.139Z,101378.22
2022-10-28T09:05:23.384Z,101380.59
2022-10-28T09:07:52.305Z,101377.47
2022-10-28T09:10:35.968Z,101372.44
2022-10-28T09:13:12.904Z,101380.38
2022-10-28T09:15:49.370Z,101378.44
2022-10-28T09:18:20.087Z,101373.53
2022-10-28T09:20:54.194Z,101377.63
2022-10-28T09:23:31.767Z,101371.97
2022-10-28T09:26:10.861Z,101371.28
2022-10-28T09:28:50.221Z,101362.78
2022-10-28T09:31:27.375Z,101360.69
2022-10-28T09:34:05.363Z,101361.22
2022-10-28T09:36:38.666Z,101362.00
2022-10-28T09:39:08.404Z,101360.84
2022-10-28T09:41:40.391Z,101361.31
2022-10-28T09:44:16.152Z,101365.53
2022-10-28T09:46:47.458Z,101369.69
2022-10-28T09:49:21.042Z,101371.84
2022-10-28T09:51:54.953Z,101365.06
2022-10-28T09:54:29.972Z,101360.75
2022-10-28T09:56:58.021Z,101361.53
2022-10-28T09:59:26.019Z,101360.91
2022-10-28T10:01:54.172Z,101353.69
2022-10-28T10:04:24.717Z,101352.84
2022-10-28T10:06:57.686Z,101353.25
2022-10-28T10:09:28.351Z,101339.78
2022-10-28T10:12:00.825Z,101362.44
2022-10-28T10:14:35.312Z,101357.59
2022-10-28T10:17:07.484Z,101350.38
2022-10-28T10:20:00.556Z,101357.63
2022-10-28T10:22:34.754Z,101359.19
2022-10-28T10:25:03.187Z,101354.88
2022-10-28T10:27:32.344Z,101357.94
2022-10-28T10:30:00.465Z,101355.00
2022-10-28T10:32:31.600Z,101354.09
2022-10-28T10:35:04.132Z,101352.47
2022-10-28T10:37:36.112Z,101339.06
2022-10-28T10:40:12.638Z,101346.47
2022-10-28T10:42:51.616Z,101339.34
2022-10-28T10:45:29.023Z,101326.97
2022-10-28T10:48:12.160Z,101325.13
2022-10-28T10:50:40.830Z,101337.16
2022-10-28T10:53:20.194Z,101330.09
2022-10-28T10:55:52.444Z,101334.44
2022-10-28T10:58:23.551Z,101327.31
2022-10-28T11:00:53.938Z,101324.06
2022-10-28T11:03:26.734Z,101318.91
2022-10-28T11:06:18.234Z,101316.59
2022-10-28T11:08:46.276Z,101314.22
2022-10-28T11:11:15.953Z,101311.44
2022-10-28T11:13:46.190Z,101302.97
2022-10-28T11:16:22.331Z,101306.25
2022-10-28T11:18:52.593Z,101307.22
2022-10-28T11:21:42.909Z,101300.84
2022-10-28T11:24:30.710Z,101297.19
2022-10-28T11:27:10.106Z,101295.25
2022-10-28T11:29:38.346Z,101301.00
2022-10-28T11:32:24.329Z,101299.78
2022-10-28T11:35:07.187Z,101289.91
2022-10-28T11:37:49.197Z,101296.88
2022-10-28T11:40:30.815Z,101292.81
2022-10-28T11:43:16.060Z,101290.72
2022-10-28T11:45:51.194Z,101297.38
2022-10-28T11:48:28.390Z,101302.59
2022-10-28T11:51:07.965Z,101299.59
2022-10-28T11:54:10.356Z,101293.75
2022-10-28T11:56:43.084Z,101288.06
2022-10-28T11:59:40.948Z,101286.13
2022-10-28T12:02:25.078Z,101282.72
2022-10-28T12:05:04.306Z,101282.72
2022-10-28T12:07:56.255Z,101280.69
2022-10-28T12:10:49.638Z,101282.91
2022-10-28T12:13:29.920Z,101280.78
2022-10-28T12:16:05.716Z,101277.47
2022-10-28T12:18:37.819Z,101282.91
2022-10-28T12:21:16.155Z,101283.28
2022-10-28T12:23:45.994Z,101282.31
2022-10-28T12:26:16.867Z,101287.53
2022-10-28T12:28:50.552Z,101286.00
2022-10-28T12:31:23.063Z,101279.50
2022-10-28T12:33:54.157Z,101282.31
2022-10-28T12:36:28.812Z,101279.63
2022-10-28T12:39:02.486Z,101265.28
2022-10-28T12:41:46.824Z,101269.03
2022-10-28T12:44:20.136Z,101261.22
2022-10-28T12:46:57.152Z,101260.16
2022-10-28T12:49:34.948Z,101264.31
2022-10-28T12:52:13.759Z,101261.81
2022-10-28T12:54:53.728Z,101260.16
2022-10-28T12:57:24.381Z,101259.94
2022-10-28T12:59:59.815Z,101262.88
2022-10-28T13:02:39.484Z,101257.44
2022-10-28T13:05:08.219Z,101258.41
2022-10-28T13:07:56.202Z,101252.72
2022-10-28T13:10:36.996Z,101255.22
2022-10-28T13:13:27.468Z,101251.72
2022-10-28T13:16:36.780Z,101262.19
2022-10-28T13:19:23.236Z,101254.69
2022-10-28T13:22:11.525Z,101257.03
2022-10-28T13:24:50.972Z,101255.94
2022-10-28T13:27:20.814Z,101254.69
2022-10-28T13:29:52.596Z,101249.56
2022-10-28T13:32:38.281Z,101242.75
2022-10-28T13:35:16.349Z,101245.47
2022-10-28T13:37:48.535Z,101245.47
2022-10-28T13:40:44.616Z,101237.03
2022-10-28T13:43:20.844Z,101242.44
2022-10-28T13:45:51.401Z,101238.09
2022-10-28T13:48:49.207Z,101239.47
2022-10-28T13:51:48.209Z,101237.81
2022-10-28T13:54:27.251Z,101213.91
2022-10-28T13:57:02.769Z,101220.31
2022-10-28T13:59:39.799Z,101225.06
2022-10-28T14:02:40.248Z,101223.63
2022-10-28T14:05:11.954Z,101228.31
2022-10-28T14:07:52.813Z,101231.50
2022-10-28T14:10:28.346Z,101230.84
2022-10-28T14:12:58.726Z,101228.50
2022-10-28T14:15:30.338Z,101220.13
2022-10-28T14:18:10.303Z,101217.25
2022-10-28T14:20:59.005Z,101214.16
2022-10-28T14:24:08.074Z,101215.91
2022-10-28T14:27:05.775Z,101222.19
2022-10-28T14:29:44.971Z,101217.53
2022-10-28T14:32:41.138Z,101214.44
2022-10-28T14:35:26.671Z,101218.59
2022-10-28T14:38:26.964Z,101218.88
2022-10-28T14:41:06.519Z,101207.06
2022-10-28T14:43:59.434Z,101209.59
2022-10-28T14:46:41.609Z,101206.97
2022-10-28T14:49:19.605Z,101203.59
2022-10-28T14:51:49.604Z,101202.63
2022-10-28T14:54:24.239Z,101203.69
2022-10-28T14:56:56.074Z,101203.00
2022-10-28T14:59:28.373Z,101208.50
2022-10-28T15:02:11.763Z,101209.59
2022-10-28T15:04:41.594Z,101201.38
2022-10-28T15:07:14.656Z,101199.63
2022-10-28T15:09:47.399Z,101200.78
2022-10-28T15:12:18.606Z,101194.84
2022-10-28T15:14:48.561Z,101196.19
2022-10-28T15:17:18.836Z,101199.19
2022-10-28T15:19:48.427Z,101201.41
2022-10-28T15:22:20.276Z,101202.03
2022-10-28T15:24:57.922Z,101199.88
2022-10-28T15:27:27.690Z,101193.41
2022-10-28T15:29:56.639Z,101192.31
2022-10-28T15:32:33.133Z,101179.00
2022-10-28T15:35:21.386Z,101191.47
2022-10-28T15:37:49.403Z,101194.34
2022-10-28T15:40:27.719Z,101200.59
2022-10-28T15:43:00.703Z,101200.97
2022-10-28T15:45:30.459Z,101201.28
2022-10-28T15:47:59.805Z,101218.34
2022-10-28T15:50:31.216Z,101219.44
2022-10-28T15:53:21.779Z,101218.97
2022-10-28T15:56:09.494Z,101224.72
2022-10-28T15:58:40.403Z,101221.22
2022-10-28T16:01:11.473Z,101215.91
2022-10-28T16:03:44.661Z,101208.06
2022-10-28T16:06:24.951Z,101209.59
2022-10-28T16:09:02.606Z,101205.63
2022-10-28T16:11:35.722Z,101203.56
2022-10-28T16:14:08.816Z,101205.97
2022-10-28T16:16:37.760Z,101207.22
2022-10-28T16:19:10.847Z,101197.66
2022-10-28T16:21:39.814Z,101210.66
2022-10-28T16:24:10.332Z,101212.69
2022-10-28T16:26:39.755Z,101217.63
2022-10-28T16:29:07.750Z,101200.06
2022-10-28T16:31:36.061Z,101200.56
2022-10-28T16:34:04.170Z,101215.06
2022-10-28T16:36:32.383Z,101219.59
2022-10-28T16:39:00.354Z,101231.56
2022-10-28T16:41:28.380Z,101232.97
2022-10-28T16:43:57.971Z,101220.63
2022-10-28T16:46:26.005Z,101226.66
2022-10-28T16:48:54.271Z,101224.66
2022-10-28T16:51:22.268Z,101218.97
2022-10-28T16:53:50.844Z,101229.59
2022-10-28T16:56:18.921Z,101223.88
2022-10-28T16:58:46.946Z,101223.50
2022-10-28T17:01:20.998Z,101221.03
2022-10-28T17:03:49.455Z,101220.16
2022-10-28T17:06:17.502Z,101228.97
2022-10-28T17:11:33.448Z,101239.38
2022-10-28T17:14:01.471Z,101232.94
2022-10-28T17:16:30.723Z,101235.56
2022-10-28T17:18:58.734Z,101241.66
2022-10-28T17:21:26.725Z,101237.84
2022-10-28T17:23:54.685Z,101237.00
2022-10-28T17:26:22.669Z,101233.47
2022-10-28T17:28:52.123Z,101238.00
2022-10-28T17:31:23.946Z,101242.59
2022-10-28T17:33:55.804Z,101250.59
2022-10-28T17:36:24.235Z,101241.09
2022-10-28T17:38:52.223Z,101246.16
2022-10-28T17:41:20.456Z,101251.47
2022-10-28T17:43:48.497Z,101245.84
2022-10-28T17:46:16.431Z,101241.38
2022-10-28T17:48:44.387Z,101249.69
2022-10-28T17:51:14.272Z,101260.38
2022-10-28T17:53:42.219Z,101256.44
2022-10-28T17:56:10.391Z,101255.47
2022-10-28T17:58:38.399Z,101251.84
2022-10-28T18:01:09.249Z,101251.34
2022-10-28T18:03:39.005Z,101252.09
2022-10-28T18:06:09.075Z,101252.69
2022-10-28T18:08:40.073Z,101251.56
2022-10-28T18:11:09.488Z,101252.09
2022-10-28T18:13:39.712Z,101257.69
2022-10-28T18:16:09.394Z,101255.31
2022-10-28T18:18:42.042Z,101264.56
2022-10-28T18:21:11.642Z,101259.50
2022-10-28T18:23:41.891Z,101258.31
2022-10-28T18:26:12.462Z,101259.19
2022-10-28T18:28:41.751Z,101260.81
2022-10-28T18:31:12.475Z,101267.13
2022-10-28T18:33:41.076Z,101259.78
2022-10-28T18:36:12.290Z,101265.47
2022-10-28T18:38:41.897Z,101268.25
2022-10-28T18:41:12.079Z,101284.09
2022-10-28T18:43:40.260Z,101283.84
2022-10-28T18:46:08.788Z,101274.63
2022-10-28T18:48:37.152Z,101275.75
2022-10-28T18:51:07.878Z,101284.09
2022-10-28T18:53:36.682Z,101284.19
2022-10-28T18:56:07.200Z,101283.59
2022-10-28T18:58:35.312Z,101282.03
2022-10-28T19:01:08.592Z,101288.75
2022-10-28T19:03:37.441Z,101294.50
2022-10-28T19:06:09.027Z,101297.69
2022-10-28T19:08:37.027Z,101296.00
2022-10-28T19:11:07.426Z,101300.81
2022-10-28T19:13:36.768Z,101295.31
2022-10-28T19:16:05.512Z,101309.00
2022-10-28T19:18:35.514Z,101313.50
2022-10-28T19:21:04.297Z,101320.84
2022-10-28T19:23:32.717Z,101326.41
2022-10-28T19:26:01.690Z,101322.03
2022-10-28T19:28:31.419Z,101322.97
2022-10-28T19:31:04.153Z,101331.31
2022-10-28T19:33:32.775Z,101335.94
2022-10-28T19:36:05.292Z,101343.16
2022-10-28T19:38:34.313Z,101346.41
2022-10-28T19:41:03.740Z,101336.31
2022-10-28T19:43:33.281Z,101346.25
2022-10-28T19:46:10.929Z,101344.31
2022-10-28T19:48:40.368Z,101353.66
2022-10-28T19:51:09.333Z,101351.81
2022-10-28T19:53:37.340Z,101347.19
2022-10-28T19:56:05.796Z,101361.13
2022-10-28T19:58:35.251Z,101353.72
2022-10-28T20:01:04.846Z,101364.50
2022-10-28T20:03:34.753Z,101377.31
2022-10-28T20:06:06.272Z,101384.56
2022-10-28T20:08:35.737Z,101391.50
2022-10-28T20:11:06.832Z,101392.31
2022-10-28T20:13:37.167Z,101399.59
2022-10-28T20:16:07.514Z,101410.28
2022-10-28T20:18:35.849Z,101397.56
2022-10-28T20:21:06.234Z,101394.38
2022-10-28T20:23:35.769Z,101400.75
2022-10-28T20:26:06.905Z,101396.38
2022-10-28T20:28:36.877Z,101407.19
2022-10-28T20:31:08.291Z,101397.41
2022-10-28T20:33:37.663Z,101418.34
2022-10-28T20:36:06.957Z,101421.91
2022-10-28T20:38:35.063Z,101420.06
2022-10-28T20:41:03.099Z,101426.50
2022-10-28T20:43:31.081Z,101441.75
2022-10-28T20:46:02.638Z,101444.38
2022-10-28T20:48:31.713Z,101459.88
2022-10-28T20:51:01.556Z,101471.53
2022-10-28T20:53:33.887Z,101469.06
2022-10-28T20:56:02.541Z,101460.03
2022-10-28T20:58:32.462Z,101458.44
2022-10-28T21:01:05.291Z,101463.81
2022-10-28T21:03:34.028Z,101461.28
2022-10-28T21:06:03.524Z,101462.38
2022-10-28T21:08:31.852Z,101457.22
2022-10-28T21:11:02.426Z,101473.34
2022-10-28T21:13:30.420Z,101493.00
2022-10-28T21:15:58.538Z,101483.25
2022-10-28T21:18:27.884Z,101480.06
2022-10-28T21:20:57.280Z,101478.63
2022-10-28T21:23:25.807Z,101486.84
2022-10-28T21:25:54.516Z,101490.50
2022-10-28T21:28:22.636Z,101478.69
2022-10-28T21:30:50.620Z,101497.41
2022-10-28T21:33:18.930Z,101491.81
2022-10-28T21:35:55.799Z,101501.00
2022-10-28T21:38:23.784Z,101513.97
2022-10-28T21:40:59.744Z,101512.97
2022-10-28T21:43:29.264Z,101509.50
2022-10-28T21:45:57.309Z,101520.22
2022-10-28T21:48:25.699Z,101520.44
2022-10-28T21:50:56.819Z,101508.34
2022-10-28T21:53:25.523Z,101517.97
2022-10-28T21:55:55.639Z,101528.84
2022-10-28T21:58:23.679Z,101528.09
2022-10-28T22:00:51.599Z,101524.75
2022-10-28T22:03:19.659Z,101532.16
2022-10-28T22:05:51.112Z,101498.03
2022-10-28T22:08:20.503Z,101521.59
2022-10-28T22:10:48.509Z,101517.56
2022-10-28T22:13:16.444Z,101525.88
2022-10-28T22:15:44.421Z,101526.13
2022-10-28T22:18:12.359Z,101534.25
2022-10-28T22:20:40.389Z,101540.00
2022-10-28T22:23:08.360Z,101534.53
2022-10-28T22:25:37.702Z,101530.28
2022-10-28T22:28:06.029Z,101530.72
2022-10-28T22:30:33.983Z,101530.63
2022-10-28T22:33:01.916Z,101527.31
2022-10-28T22:35:29.966Z,101528.34
2022-10-28T22:37:58.019Z,101534.06
2022-10-28T22:40:26.031Z,101536.81
2022-10-28T22:42:55.304Z,101536.19
2022-10-28T22:45:23.292Z,101538.09
2022-10-28T22:47:51.876Z,101541.78
2022-10-28T22:50:20.033Z,101534.72
2022-10-28T22:52:48.047Z,101541.06
2022-10-28T22:55:16.006Z,101526.97
2022-10-28T22:57:45.231Z,101533.34
2022-10-28T23:00:15.440Z,101545.03
2022-10-28T23:02:43.576Z,101537.09
2022-10-28T23:05:11.622Z,101547.34
2022-10-28T23:07:39.589Z,101543.94
2022-10-28T23:10:08.284Z,101536.81
2022-10-28T23:12:36.246Z,101542.31
2022-10-28T23:15:04.619Z,101547.22
2022-10-28T23:17:33.900Z,101546.53
2022-10-28T23:20:01.868Z,101539.25
2022-10-28T23:22:30.225Z,101552.09
2022-10-28T23:24:58.208Z,101557.53
2022-10-28T23:27:26.140Z,101548.78
2022-10-28T23:29:54.121Z,101553.50
2022-10-28T23:32:22.150Z,101550.16
2022-10-28T23:34:51.407Z,101560.16
2022-10-28T23:37:19.323Z,101554.94
2022-10-28T23:39:47.301Z,101556.06
2022-10-28T23:42:15.335Z,101561.50
2022-10-28T23:44:43.280Z,101551.72
2022-10-28T23:47:11.219Z,101549.22
2022-10-28T23:49:39.188Z,101552.09
2022-10-28T23:52:08.684Z,101559.44
2022-10-28T23:54:37.090Z,101566.59
2022-10-28T23:57:05.125Z,101586.38
2022-10-28T23:59:33.130Z,101581.06
